sensor_id;sensor_type;location;lat;lon;timestamp;temperature;humidity
19536;HTU21D;9913;51.168;4.124;2022-07-09T00:00:06;15.96;51.82
19536;HTU21D;9913;51.168;4.124;2022-07-09T00:02:35;15.91;51.74
19536;HTU21D;9913;51.168;4.124;2022-07-09T00:05:05;15.93;51.77
19536;HTU21D;9913;51.168;4.124;2022-07-09T00:07:39;15.86;51.80
19536;HTU21D;9913;51.168;4.124;2022-07-09T00:10:07;15.83;51.88
19536;HTU21D;9913;51.168;4.124;2022-07-09T00:12:37;15.80;51.99
19536;HTU21D;9913;51.168;4.124;2022-07-09T00:15:08;15.78;52.01
19536;HTU21D;9913;51.168;4.124;2022-07-09T00:17:36;15.78;51.98
19536;HTU21D;9913;51.168;4.124;2022-07-09T00:20:06;15.77;52.11
19536;HTU21D;9913;51.168;4.124;2022-07-09T00:22:35;15.73;52.07
19536;HTU21D;9913;51.168;4.124;2022-07-09T00:25:03;15.71;52.17
19536;HTU21D;9913;51.168;4.124;2022-07-09T00:27:32;15.67;52.23
19536;HTU21D;9913;51.168;4.124;2022-07-09T00:30:01;15.67;52.29
19536;HTU21D;9913;51.168;4.124;2022-07-09T00:32:30;15.66;52.33
19536;HTU21D;9913;51.168;4.124;2022-07-09T00:34:59;15.61;52.36
19536;HTU21D;9913;51.168;4.124;2022-07-09T00:37:27;15.67;52.29
19536;HTU21D;9913;51.168;4.124;2022-07-09T00:39:56;15.65;52.28
19536;HTU21D;9913;51.168;4.124;2022-07-09T00:42:24;15.66;52.23
19536;HTU21D;9913;51.168;4.124;2022-07-09T00:44:52;15.68;52.18
19536;HTU21D;9913;51.168;4.124;2022-07-09T00:47:21;15.75;52.07
19536;HTU21D;9913;51.168;4.124;2022-07-09T00:49:50;15.78;52.14
19536;HTU21D;9913;51.168;4.124;2022-07-09T00:52:20;15.80;52.05
19536;HTU21D;9913;51.168;4.124;2022-07-09T00:54:49;15.75;52.12
19536;HTU21D;9913;51.168;4.124;2022-07-09T00:57:18;15.74;52.10
19536;HTU21D;9913;51.168;4.124;2022-07-09T00:59:47;15.68;52.11
19536;HTU21D;9913;51.168;4.124;2022-07-09T01:02:17;15.68;52.21
19536;HTU21D;9913;51.168;4.124;2022-07-09T01:04:46;15.68;52.22
19536;HTU21D;9913;51.168;4.124;2022-07-09T01:07:16;15.77;52.15
19536;HTU21D;9913;51.168;4.124;2022-07-09T01:09:44;15.72;52.11
19536;HTU21D;9913;51.168;4.124;2022-07-09T01:12:13;15.72;52.26
19536;HTU21D;9913;51.168;4.124;2022-07-09T01:14:41;15.65;52.25
19536;HTU21D;9913;51.168;4.124;2022-07-09T01:17:10;15.63;52.30
19536;HTU21D;9913;51.168;4.124;2022-07-09T01:19:38;15.68;52.34
19536;HTU21D;9913;51.168;4.124;2022-07-09T01:22:08;15.61;52.37
19536;HTU21D;9913;51.168;4.124;2022-07-09T01:24:36;15.54;52.43
19536;HTU21D;9913;51.168;4.124;2022-07-09T01:27:05;15.51;52.56
19536;HTU21D;9913;51.168;4.124;2022-07-09T01:29:34;15.46;52.67
19536;HTU21D;9913;51.168;4.124;2022-07-09T01:32:03;15.43;52.85
19536;HTU21D;9913;51.168;4.124;2022-07-09T01:34:31;15.43;52.99
19536;HTU21D;9913;51.168;4.124;2022-07-09T01:37:00;15.41;53.07
19536;HTU21D;9913;51.168;4.124;2022-07-09T01:39:29;15.39;53.11
19536;HTU21D;9913;51.168;4.124;2022-07-09T01:41:58;15.37;53.13
19536;HTU21D;9913;51.168;4.124;2022-07-09T01:44:26;15.36;53.14
19536;HTU21D;9913;51.168;4.124;2022-07-09T01:46:54;15.44;53.20
19536;HTU21D;9913;51.168;4.124;2022-07-09T01:49:23;15.47;53.13
19536;HTU21D;9913;51.168;4.124;2022-07-09T01:51:51;15.44;53.03
19536;HTU21D;9913;51.168;4.124;2022-07-09T01:54:19;15.43;53.05
19536;HTU21D;9913;51.168;4.124;2022-07-09T01:56:49;15.39;53.09
19536;HTU21D;9913;51.168;4.124;2022-07-09T01:59:17;15.43;53.21
19536;HTU21D;9913;51.168;4.124;2022-07-09T02:01:45;15.45;53.20
19536;HTU21D;9913;51.168;4.124;2022-07-09T02:04:16;15.52;53.10
19536;HTU21D;9913;51.168;4.124;2022-07-09T02:06:44;15.61;53.08
19536;HTU21D;9913;51.168;4.124;2022-07-09T02:09:13;15.70;52.96
19536;HTU21D;9913;51.168;4.124;2022-07-09T02:11:41;15.74;52.98
19536;HTU21D;9913;51.168;4.124;2022-07-09T02:14:10;15.81;52.88
19536;HTU21D;9913;51.168;4.124;2022-07-09T02:16:39;15.87;52.83
19536;HTU21D;9913;51.168;4.124;2022-07-09T02:19:07;15.91;52.68
19536;HTU21D;9913;51.168;4.124;2022-07-09T02:21:36;15.95;52.56
19536;HTU21D;9913;51.168;4.124;2022-07-09T02:24:04;16.03;52.49
19536;HTU21D;9913;51.168;4.124;2022-07-09T02:26:33;16.05;52.55
19536;HTU21D;9913;51.168;4.124;2022-07-09T02:29:01;16.10;52.49
19536;HTU21D;9913;51.168;4.124;2022-07-09T02:31:31;16.19;52.38
19536;HTU21D;9913;51.168;4.124;2022-07-09T02:33:59;16.20;52.20
19536;HTU21D;9913;51.168;4.124;2022-07-09T02:36:28;16.25;52.17
19536;HTU21D;9913;51.168;4.124;2022-07-09T02:38:56;16.27;52.08
19536;HTU21D;9913;51.168;4.124;2022-07-09T02:41:24;16.27;52.07
19536;HTU21D;9913;51.168;4.124;2022-07-09T02:43:52;16.31;52.09
19536;HTU21D;9913;51.168;4.124;2022-07-09T02:46:21;16.37;52.11
19536;HTU21D;9913;51.168;4.124;2022-07-09T02:48:50;16.33;52.01
19536;HTU21D;9913;51.168;4.124;2022-07-09T02:51:19;16.30;52.14
19536;HTU21D;9913;51.168;4.124;2022-07-09T02:53:47;16.34;52.20
19536;HTU21D;9913;51.168;4.124;2022-07-09T02:56:15;16.36;52.11
19536;HTU21D;9913;51.168;4.124;2022-07-09T02:58:44;16.36;52.20
19536;HTU21D;9913;51.168;4.124;2022-07-09T03:01:12;16.35;52.17
19536;HTU21D;9913;51.168;4.124;2022-07-09T03:03:40;16.36;52.14
19536;HTU21D;9913;51.168;4.124;2022-07-09T03:06:10;16.35;52.27
19536;HTU21D;9913;51.168;4.124;2022-07-09T03:08:39;16.39;52.16
19536;HTU21D;9913;51.168;4.124;2022-07-09T03:11:08;16.27;52.16
19536;HTU21D;9913;51.168;4.124;2022-07-09T03:13:39;16.20;52.36
19536;HTU21D;9913;51.168;4.124;2022-07-09T03:16:08;16.14;52.48
19536;HTU21D;9913;51.168;4.124;2022-07-09T03:18:36;16.08;52.50
19536;HTU21D;9913;51.168;4.124;2022-07-09T03:21:06;15.99;52.64
19536;HTU21D;9913;51.168;4.124;2022-07-09T03:23:38;15.97;52.85
19536;HTU21D;9913;51.168;4.124;2022-07-09T03:26:06;15.91;52.89
19536;HTU21D;9913;51.168;4.124;2022-07-09T03:28:35;15.84;52.93
19536;HTU21D;9913;51.168;4.124;2022-07-09T03:31:04;15.72;53.09
19536;HTU21D;9913;51.168;4.124;2022-07-09T03:33:33;15.67;53.27
19536;HTU21D;9913;51.168;4.124;2022-07-09T03:36:01;15.60;53.50
19536;HTU21D;9913;51.168;4.124;2022-07-09T03:38:30;15.62;53.66
19536;HTU21D;9913;51.168;4.124;2022-07-09T03:41:00;15.71;53.64
19536;HTU21D;9913;51.168;4.124;2022-07-09T03:43:29;15.72;53.61
19536;HTU21D;9913;51.168;4.124;2022-07-09T03:45:57;15.66;53.67
19536;HTU21D;9913;51.168;4.124;2022-07-09T03:48:25;15.60;53.72
19536;HTU21D;9913;51.168;4.124;2022-07-09T03:50:54;15.57;53.79
19536;HTU21D;9913;51.168;4.124;2022-07-09T03:53:22;15.56;53.84
19536;HTU21D;9913;51.168;4.124;2022-07-09T03:55:51;15.52;53.97
19536;HTU21D;9913;51.168;4.124;2022-07-09T03:58:21;15.56;54.06
19536;HTU21D;9913;51.168;4.124;2022-07-09T04:00:49;15.55;53.99
19536;HTU21D;9913;51.168;4.124;2022-07-09T04:03:19;15.55;53.95
19536;HTU21D;9913;51.168;4.124;2022-07-09T04:05:47;15.54;53.98
19536;HTU21D;9913;51.168;4.124;2022-07-09T04:08:16;15.56;53.92
19536;HTU21D;9913;51.168;4.124;2022-07-09T04:10:44;15.54;53.89
19536;HTU21D;9913;51.168;4.124;2022-07-09T04:13:12;15.51;53.84
19536;HTU21D;9913;51.168;4.124;2022-07-09T04:15:42;15.54;53.91
19536;HTU21D;9913;51.168;4.124;2022-07-09T04:18:10;15.60;53.97
19536;HTU21D;9913;51.168;4.124;2022-07-09T04:20:39;15.68;53.91
19536;HTU21D;9913;51.168;4.124;2022-07-09T04:23:07;15.72;53.88
19536;HTU21D;9913;51.168;4.124;2022-07-09T04:25:36;15.83;53.61
19536;HTU21D;9913;51.168;4.124;2022-07-09T04:28:04;15.93;53.42
19536;HTU21D;9913;51.168;4.124;2022-07-09T04:30:33;16.01;53.31
19536;HTU21D;9913;51.168;4.124;2022-07-09T04:33:03;16.05;53.20
19536;HTU21D;9913;51.168;4.124;2022-07-09T04:35:31;16.21;53.06
19536;HTU21D;9913;51.168;4.124;2022-07-09T04:38:00;16.35;52.50
19536;HTU21D;9913;51.168;4.124;2022-07-09T04:40:28;16.41;52.34
19536;HTU21D;9913;51.168;4.124;2022-07-09T04:42:56;16.48;52.10
19536;HTU21D;9913;51.168;4.124;2022-07-09T04:45:25;16.55;52.01
19536;HTU21D;9913;51.168;4.124;2022-07-09T04:47:53;16.52;51.93
19536;HTU21D;9913;51.168;4.124;2022-07-09T04:50:23;16.59;51.87
19536;HTU21D;9913;51.168;4.124;2022-07-09T04:52:51;16.66;51.89
19536;HTU21D;9913;51.168;4.124;2022-07-09T04:55:20;16.76;51.45
19536;HTU21D;9913;51.168;4.124;2022-07-09T04:57:50;16.76;51.30
19536;HTU21D;9913;51.168;4.124;2022-07-09T05:00:18;16.70;51.30
19536;HTU21D;9913;51.168;4.124;2022-07-09T05:02:46;16.66;51.41
19536;HTU21D;9913;51.168;4.124;2022-07-09T05:05:15;16.73;51.38
19536;HTU21D;9913;51.168;4.124;2022-07-09T05:07:44;16.75;51.30
19536;HTU21D;9913;51.168;4.124;2022-07-09T05:10:13;16.80;51.24
19536;HTU21D;9913;51.168;4.124;2022-07-09T05:12:41;16.98;51.17
19536;HTU21D;9913;51.168;4.124;2022-07-09T05:15:10;17.14;51.04
19536;HTU21D;9913;51.168;4.124;2022-07-09T05:17:39;17.30;51.04
19536;HTU21D;9913;51.168;4.124;2022-07-09T05:20:09;17.38;50.85
19536;HTU21D;9913;51.168;4.124;2022-07-09T05:22:38;17.41;50.54
19536;HTU21D;9913;51.168;4.124;2022-07-09T05:25:08;17.48;50.43
19536;HTU21D;9913;51.168;4.124;2022-07-09T05:27:42;17.38;50.35
19536;HTU21D;9913;51.168;4.124;2022-07-09T05:30:11;17.36;50.23
19536;HTU21D;9913;51.168;4.124;2022-07-09T05:32:46;17.34;50.59
19536;HTU21D;9913;51.168;4.124;2022-07-09T05:35:14;17.35;50.31
19536;HTU21D;9913;51.168;4.124;2022-07-09T05:37:44;17.37;50.40
19536;HTU21D;9913;51.168;4.124;2022-07-09T05:40:14;17.50;50.74
19536;HTU21D;9913;51.168;4.124;2022-07-09T05:42:42;17.62;50.21
19536;HTU21D;9913;51.168;4.124;2022-07-09T05:45:10;17.63;50.90
19536;HTU21D;9913;51.168;4.124;2022-07-09T05:47:39;17.66;49.89
19536;HTU21D;9913;51.168;4.124;2022-07-09T05:50:08;17.84;49.89
19536;HTU21D;9913;51.168;4.124;2022-07-09T05:52:36;18.06;49.50
19536;HTU21D;9913;51.168;4.124;2022-07-09T05:55:05;18.26;49.72
19536;HTU21D;9913;51.168;4.124;2022-07-09T05:57:35;18.49;49.01
19536;HTU21D;9913;51.168;4.124;2022-07-09T06:00:05;18.69;49.21
19536;HTU21D;9913;51.168;4.124;2022-07-09T06:02:34;18.77;49.79
19536;HTU21D;9913;51.168;4.124;2022-07-09T06:05:03;19.01;48.24
19536;HTU21D;9913;51.168;4.124;2022-07-09T06:07:31;19.08;48.60
19536;HTU21D;9913;51.168;4.124;2022-07-09T06:09:59;19.18;48.32
19536;HTU21D;9913;51.168;4.124;2022-07-09T06:12:28;18.98;47.99
19536;HTU21D;9913;51.168;4.124;2022-07-09T06:14:57;18.92;48.06
19536;HTU21D;9913;51.168;4.124;2022-07-09T06:17:26;19.10;47.85
19536;HTU21D;9913;51.168;4.124;2022-07-09T06:19:54;19.28;48.24
19536;HTU21D;9913;51.168;4.124;2022-07-09T06:22:22;19.51;47.70
19536;HTU21D;9913;51.168;4.124;2022-07-09T06:24:57;19.72;46.99
19536;HTU21D;9913;51.168;4.124;2022-07-09T06:27:25;19.56;47.06
19536;HTU21D;9913;51.168;4.124;2022-07-09T06:29:54;19.58;47.37
19536;HTU21D;9913;51.168;4.124;2022-07-09T06:32:24;19.53;47.29
19536;HTU21D;9913;51.168;4.124;2022-07-09T06:34:53;19.54;47.03
19536;HTU21D;9913;51.168;4.124;2022-07-09T06:37:23;19.60;47.66
19536;HTU21D;9913;51.168;4.124;2022-07-09T06:39:52;19.56;47.64
19536;HTU21D;9913;51.168;4.124;2022-07-09T06:42:26;19.45;47.02
19536;HTU21D;9913;51.168;4.124;2022-07-09T06:45:09;19.58;47.74
19536;HTU21D;9913;51.168;4.124;2022-07-09T06:47:39;19.55;46.80
19536;HTU21D;9913;51.168;4.124;2022-07-09T06:50:11;19.74;46.84
19536;HTU21D;9913;51.168;4.124;2022-07-09T06:52:39;19.82;46.93
19536;HTU21D;9913;51.168;4.124;2022-07-09T06:55:08;19.84;47.99
19536;HTU21D;9913;51.168;4.124;2022-07-09T06:57:37;19.87;46.22
19536;HTU21D;9913;51.168;4.124;2022-07-09T07:00:07;19.73;46.74
19536;HTU21D;9913;51.168;4.124;2022-07-09T07:02:35;19.72;47.43
19536;HTU21D;9913;51.168;4.124;2022-07-09T07:05:06;19.86;47.26
19536;HTU21D;9913;51.168;4.124;2022-07-09T07:07:40;20.42;46.63
19536;HTU21D;9913;51.168;4.124;2022-07-09T07:10:09;20.66;45.78
19536;HTU21D;9913;51.168;4.124;2022-07-09T07:12:38;20.74;46.09
19536;HTU21D;9913;51.168;4.124;2022-07-09T07:15:08;20.34;45.93
19536;HTU21D;9913;51.168;4.124;2022-07-09T07:17:36;20.17;46.90
19536;HTU21D;9913;51.168;4.124;2022-07-09T07:20:07;20.07;46.40
19536;HTU21D;9913;51.168;4.124;2022-07-09T07:22:35;20.15;46.23
19536;HTU21D;9913;51.168;4.124;2022-07-09T07:25:04;20.43;46.43
19536;HTU21D;9913;51.168;4.124;2022-07-09T07:27:32;20.51;46.83
19536;HTU21D;9913;51.168;4.124;2022-07-09T07:30:01;20.46;46.15
19536;HTU21D;9913;51.168;4.124;2022-07-09T07:32:29;20.62;46.36
19536;HTU21D;9913;51.168;4.124;2022-07-09T07:34:57;20.81;46.09
19536;HTU21D;9913;51.168;4.124;2022-07-09T07:37:27;21.04;45.67
19536;HTU21D;9913;51.168;4.124;2022-07-09T07:39:55;21.25;46.15
19536;HTU21D;9913;51.168;4.124;2022-07-09T07:42:24;21.24;45.58
19536;HTU21D;9913;51.168;4.124;2022-07-09T07:44:53;21.22;45.84
19536;HTU21D;9913;51.168;4.124;2022-07-09T07:47:21;20.99;46.20
19536;HTU21D;9913;51.168;4.124;2022-07-09T07:49:49;21.13;47.01
19536;HTU21D;9913;51.168;4.124;2022-07-09T07:52:18;21.06;46.60
19536;HTU21D;9913;51.168;4.124;2022-07-09T07:54:48;20.96;45.81
19536;HTU21D;9913;51.168;4.124;2022-07-09T07:57:16;21.43;46.31
19536;HTU21D;9913;51.168;4.124;2022-07-09T07:59:45;21.74;45.90
19536;HTU21D;9913;51.168;4.124;2022-07-09T08:02:13;21.90;45.19
19536;HTU21D;9913;51.168;4.124;2022-07-09T08:04:42;21.84;45.36
19536;HTU21D;9913;51.168;4.124;2022-07-09T08:07:10;21.72;44.83
19536;HTU21D;9913;51.168;4.124;2022-07-09T08:09:39;21.94;45.47
19536;HTU21D;9913;51.168;4.124;2022-07-09T08:12:09;22.13;44.32
19536;HTU21D;9913;51.168;4.124;2022-07-09T08:14:37;21.64;44.67
19536;HTU21D;9913;51.168;4.124;2022-07-09T08:17:06;22.08;44.84
19536;HTU21D;9913;51.168;4.124;2022-07-09T08:19:34;22.32;44.90
19536;HTU21D;9913;51.168;4.124;2022-07-09T08:22:03;22.38;44.19
19536;HTU21D;9913;51.168;4.124;2022-07-09T08:24:31;22.77;43.76
19536;HTU21D;9913;51.168;4.124;2022-07-09T08:27:00;22.64;43.74
19536;HTU21D;9913;51.168;4.124;2022-07-09T08:29:30;22.08;44.95
19536;HTU21D;9913;51.168;4.124;2022-07-09T08:31:58;21.82;44.58
19536;HTU21D;9913;51.168;4.124;2022-07-09T08:34:27;21.83;44.70
19536;HTU21D;9913;51.168;4.124;2022-07-09T08:36:55;21.84;45.53
19536;HTU21D;9913;51.168;4.124;2022-07-09T08:39:23;21.78;45.05
19536;HTU21D;9913;51.168;4.124;2022-07-09T08:41:52;21.93;44.43
19536;HTU21D;9913;51.168;4.124;2022-07-09T08:44:30;21.54;44.14
19536;HTU21D;9913;51.168;4.124;2022-07-09T08:47:00;21.35;44.62
19536;HTU21D;9913;51.168;4.124;2022-07-09T08:49:31;21.43;45.07
19536;HTU21D;9913;51.168;4.124;2022-07-09T08:52:01;21.73;44.45
19536;HTU21D;9913;51.168;4.124;2022-07-09T08:54:31;22.02;44.94
19536;HTU21D;9913;51.168;4.124;2022-07-09T08:56:59;21.83;44.00
19536;HTU21D;9913;51.168;4.124;2022-07-09T08:59:29;21.67;44.26
19536;HTU21D;9913;51.168;4.124;2022-07-09T09:01:57;21.36;44.07
19536;HTU21D;9913;51.168;4.124;2022-07-09T09:04:31;21.27;44.82
19536;HTU21D;9913;51.168;4.124;2022-07-09T09:07:12;21.27;44.84
19536;HTU21D;9913;51.168;4.124;2022-07-09T09:09:40;21.45;45.41
19536;HTU21D;9913;51.168;4.124;2022-07-09T09:12:09;21.65;44.56
19536;HTU21D;9913;51.168;4.124;2022-07-09T09:14:39;21.66;44.12
19536;HTU21D;9913;51.168;4.124;2022-07-09T09:17:08;21.73;44.93
19536;HTU21D;9913;51.168;4.124;2022-07-09T09:19:39;21.74;43.64
19536;HTU21D;9913;51.168;4.124;2022-07-09T09:22:07;21.89;43.44
19536;HTU21D;9913;51.168;4.124;2022-07-09T09:24:36;21.81;44.20
19536;HTU21D;9913;51.168;4.124;2022-07-09T09:27:05;22.08;43.81
19536;HTU21D;9913;51.168;4.124;2022-07-09T09:29:36;21.99;43.20
19536;HTU21D;9913;51.168;4.124;2022-07-09T09:32:11;22.02;42.90
19536;HTU21D;9913;51.168;4.124;2022-07-09T09:34:49;22.07;42.87
19536;HTU21D;9913;51.168;4.124;2022-07-09T09:37:25;22.06;42.89
19536;HTU21D;9913;51.168;4.124;2022-07-09T09:39:53;21.59;42.12
19536;HTU21D;9913;51.168;4.124;2022-07-09T09:42:24;21.67;42.96
19536;HTU21D;9913;51.168;4.124;2022-07-09T09:44:57;21.63;42.15
19536;HTU21D;9913;51.168;4.124;2022-07-09T09:47:28;22.25;44.13
19536;HTU21D;9913;51.168;4.124;2022-07-09T09:49:58;22.20;41.73
19536;HTU21D;9913;51.168;4.124;2022-07-09T09:52:28;21.92;42.39
19536;HTU21D;9913;51.168;4.124;2022-07-09T09:54:58;22.10;41.81
19536;HTU21D;9913;51.168;4.124;2022-07-09T09:57:27;23.03;43.19
19536;HTU21D;9913;51.168;4.124;2022-07-09T09:59:55;23.36;40.94
19536;HTU21D;9913;51.168;4.124;2022-07-09T10:02:25;23.27;41.77
19536;HTU21D;9913;51.168;4.124;2022-07-09T10:04:56;22.48;41.57
19536;HTU21D;9913;51.168;4.124;2022-07-09T10:07:25;22.14;41.52
19536;HTU21D;9913;51.168;4.124;2022-07-09T10:09:54;22.11;42.71
19536;HTU21D;9913;51.168;4.124;2022-07-09T10:12:27;22.35;41.95
19536;HTU21D;9913;51.168;4.124;2022-07-09T10:14:56;22.23;40.91
19536;HTU21D;9913;51.168;4.124;2022-07-09T10:17:26;22.58;40.88
19536;HTU21D;9913;51.168;4.124;2022-07-09T10:19:57;23.47;41.59
19536;HTU21D;9913;51.168;4.124;2022-07-09T10:22:34;23.35;40.21
19536;HTU21D;9913;51.168;4.124;2022-07-09T10:25:04;23.01;39.96
19536;HTU21D;9913;51.168;4.124;2022-07-09T10:27:41;22.46;41.36
19536;HTU21D;9913;51.168;4.124;2022-07-09T10:30:22;22.39;40.95
19536;HTU21D;9913;51.168;4.124;2022-07-09T10:33:05;22.60;40.51
19536;HTU21D;9913;51.168;4.124;2022-07-09T10:35:42;23.42;41.61
19536;HTU21D;9913;51.168;4.124;2022-07-09T10:38:12;23.23;41.58
19536;HTU21D;9913;51.168;4.124;2022-07-09T10:40:42;23.03;40.87
19536;HTU21D;9913;51.168;4.124;2022-07-09T10:43:11;22.49;39.96
19536;HTU21D;9913;51.168;4.124;2022-07-09T10:45:41;22.13;40.69
19536;HTU21D;9913;51.168;4.124;2022-07-09T10:48:12;22.17;41.10
19536;HTU21D;9913;51.168;4.124;2022-07-09T10:50:46;22.10;41.16
19536;HTU21D;9913;51.168;4.124;2022-07-09T10:53:14;22.24;41.26
19536;HTU21D;9913;51.168;4.124;2022-07-09T10:55:44;22.35;41.42
19536;HTU21D;9913;51.168;4.124;2022-07-09T10:58:17;22.43;41.87
19536;HTU21D;9913;51.168;4.124;2022-07-09T11:00:54;22.35;40.56
19536;HTU21D;9913;51.168;4.124;2022-07-09T11:03:24;22.38;41.17
19536;HTU21D;9913;51.168;4.124;2022-07-09T11:05:55;22.24;40.61
19536;HTU21D;9913;51.168;4.124;2022-07-09T11:08:23;21.98;41.21
19536;HTU21D;9913;51.168;4.124;2022-07-09T11:10:52;21.70;41.28
19536;HTU21D;9913;51.168;4.124;2022-07-09T11:13:23;21.69;42.40
19536;HTU21D;9913;51.168;4.124;2022-07-09T11:15:58;22.31;40.89
19536;HTU21D;9913;51.168;4.124;2022-07-09T11:18:27;22.37;41.65
19536;HTU21D;9913;51.168;4.124;2022-07-09T11:20:57;22.56;40.75
19536;HTU21D;9913;51.168;4.124;2022-07-09T11:23:25;22.52;40.79
19536;HTU21D;9913;51.168;4.124;2022-07-09T11:25:54;22.21;41.85
19536;HTU21D;9913;51.168;4.124;2022-07-09T11:28:23;21.91;40.87
19536;HTU21D;9913;51.168;4.124;2022-07-09T11:30:59;22.16;41.33
19536;HTU21D;9913;51.168;4.124;2022-07-09T11:33:28;21.93;40.39
19536;HTU21D;9913;51.168;4.124;2022-07-09T11:36:18;21.98;41.70
19536;HTU21D;9913;51.168;4.124;2022-07-09T11:38:48;21.98;39.88
19536;HTU21D;9913;51.168;4.124;2022-07-09T11:41:17;21.79;41.37
19536;HTU21D;9913;51.168;4.124;2022-07-09T11:43:46;21.84;41.58
19536;HTU21D;9913;51.168;4.124;2022-07-09T11:46:16;22.13;40.03
19536;HTU21D;9913;51.168;4.124;2022-07-09T11:48:49;21.99;40.56
19536;HTU21D;9913;51.168;4.124;2022-07-09T11:51:28;21.61;39.91
19536;HTU21D;9913;51.168;4.124;2022-07-09T11:53:56;21.36;40.17
19536;HTU21D;9913;51.168;4.124;2022-07-09T11:56:25;22.05;39.77
19536;HTU21D;9913;51.168;4.124;2022-07-09T11:58:53;22.26;39.15
19536;HTU21D;9913;51.168;4.124;2022-07-09T12:01:23;22.76;39.03
19536;HTU21D;9913;51.168;4.124;2022-07-09T12:03:52;22.40;40.29
19536;HTU21D;9913;51.168;4.124;2022-07-09T12:06:20;21.65;39.52
19536;HTU21D;9913;51.168;4.124;2022-07-09T12:08:58;21.67;40.08
19536;HTU21D;9913;51.168;4.124;2022-07-09T12:11:27;22.58;40.46
19536;HTU21D;9913;51.168;4.124;2022-07-09T12:13:55;22.37;40.30
19536;HTU21D;9913;51.168;4.124;2022-07-09T12:16:24;21.80;40.95
19536;HTU21D;9913;51.168;4.124;2022-07-09T12:18:52;21.75;43.23
19536;HTU21D;9913;51.168;4.124;2022-07-09T12:21:21;22.73;43.35
19536;HTU21D;9913;51.168;4.124;2022-07-09T12:23:50;22.24;42.70
19536;HTU21D;9913;51.168;4.124;2022-07-09T12:26:19;21.67;43.71
19536;HTU21D;9913;51.168;4.124;2022-07-09T12:28:47;22.13;44.04
19536;HTU21D;9913;51.168;4.124;2022-07-09T12:31:23;22.23;44.00
19536;HTU21D;9913;51.168;4.124;2022-07-09T12:33:51;22.69;43.35
19536;HTU21D;9913;51.168;4.124;2022-07-09T12:36:20;22.64;42.84
19536;HTU21D;9913;51.168;4.124;2022-07-09T12:39:10;22.67;42.26
19536;HTU21D;9913;51.168;4.124;2022-07-09T12:41:38;22.53;42.13
19536;HTU21D;9913;51.168;4.124;2022-07-09T12:44:07;23.02;41.42
19536;HTU21D;9913;51.168;4.124;2022-07-09T12:46:35;23.21;39.62
19536;HTU21D;9913;51.168;4.124;2022-07-09T12:49:04;22.82;39.47
19536;HTU21D;9913;51.168;4.124;2022-07-09T12:51:32;23.40;40.92
19536;HTU21D;9913;51.168;4.124;2022-07-09T12:54:01;23.03;39.14
19536;HTU21D;9913;51.168;4.124;2022-07-09T12:56:31;22.81;40.95
19536;HTU21D;9913;51.168;4.124;2022-07-09T12:59:19;23.49;39.05
19536;HTU21D;9913;51.168;4.124;2022-07-09T13:01:47;24.01;38.15
19536;HTU21D;9913;51.168;4.124;2022-07-09T13:04:16;23.58;39.01
19536;HTU21D;9913;51.168;4.124;2022-07-09T13:06:44;22.18;40.17
19536;HTU21D;9913;51.168;4.124;2022-07-09T13:09:13;22.05;41.35
19536;HTU21D;9913;51.168;4.124;2022-07-09T13:11:43;23.36;40.75
19536;HTU21D;9913;51.168;4.124;2022-07-09T13:14:11;23.59;39.16
19536;HTU21D;9913;51.168;4.124;2022-07-09T13:16:39;23.12;38.18
19536;HTU21D;9913;51.168;4.124;2022-07-09T13:19:08;22.81;38.47
19536;HTU21D;9913;51.168;4.124;2022-07-09T13:21:36;22.96;38.49
19536;HTU21D;9913;51.168;4.124;2022-07-09T13:24:05;23.14;38.00
19536;HTU21D;9913;51.168;4.124;2022-07-09T13:26:33;22.48;38.50
19536;HTU21D;9913;51.168;4.124;2022-07-09T13:29:04;22.69;40.88
19536;HTU21D;9913;51.168;4.124;2022-07-09T13:31:32;23.06;36.92
19536;HTU21D;9913;51.168;4.124;2022-07-09T13:34:00;23.38;38.91
19536;HTU21D;9913;51.168;4.124;2022-07-09T13:36:29;23.49;37.72
19536;HTU21D;9913;51.168;4.124;2022-07-09T13:38:58;24.11;59.61
19536;HTU21D;9913;51.168;4.124;2022-07-09T13:41:28;23.75;76.36
19536;HTU21D;9913;51.168;4.124;2022-07-09T13:43:57;23.05;89.83
19536;HTU21D;9913;51.168;4.124;2022-07-09T13:46:27;23.00;93.88
19536;HTU21D;9913;51.168;4.124;2022-07-09T13:48:56;21.89;93.63
19536;HTU21D;9913;51.168;4.124;2022-07-09T13:51:24;22.86;92.76
19536;HTU21D;9913;51.168;4.124;2022-07-09T13:53:53;24.44;93.93
19536;HTU21D;9913;51.168;4.124;2022-07-09T13:56:21;25.52;93.52
19536;HTU21D;9913;51.168;4.124;2022-07-09T13:58:49;26.16;84.10
19536;HTU21D;9913;51.168;4.124;2022-07-09T14:01:18;26.20;83.64
19536;HTU21D;9913;51.168;4.124;2022-07-09T14:03:48;26.68;83.19
19536;HTU21D;9913;51.168;4.124;2022-07-09T14:06:16;26.66;85.33
19536;HTU21D;9913;51.168;4.124;2022-07-09T14:09:05;25.07;87.50
19536;HTU21D;9913;51.168;4.124;2022-07-09T14:11:33;25.68;89.49
19536;HTU21D;9913;51.168;4.124;2022-07-09T14:14:01;26.01;85.85
19536;HTU21D;9913;51.168;4.124;2022-07-09T14:16:30;25.72;84.81
19536;HTU21D;9913;51.168;4.124;2022-07-09T14:19:00;24.59;87.36
19536;HTU21D;9913;51.168;4.124;2022-07-09T14:21:28;23.10;91.11
19536;HTU21D;9913;51.168;4.124;2022-07-09T14:23:57;22.32;95.32
19536;HTU21D;9913;51.168;4.124;2022-07-09T14:26:25;23.73;92.68
19536;HTU21D;9913;51.168;4.124;2022-07-09T14:28:53;24.71;90.73
19536;HTU21D;9913;51.168;4.124;2022-07-09T14:31:21;25.47;87.03
19536;HTU21D;9913;51.168;4.124;2022-07-09T14:33:51;25.45;85.96
19536;HTU21D;9913;51.168;4.124;2022-07-09T14:36:22;26.31;83.53
19536;HTU21D;9913;51.168;4.124;2022-07-09T14:38:50;26.67;81.75
19536;HTU21D;9913;51.168;4.124;2022-07-09T14:41:19;24.19;87.99
19536;HTU21D;9913;51.168;4.124;2022-07-09T14:43:47;22.83;95.08
19536;HTU21D;9913;51.168;4.124;2022-07-09T14:46:16;25.45;94.58
19536;HTU21D;9913;51.168;4.124;2022-07-09T14:48:44;26.43;83.94
19536;HTU21D;9913;51.168;4.124;2022-07-09T14:51:13;26.77;81.67
19536;HTU21D;9913;51.168;4.124;2022-07-09T14:53:43;27.71;78.64
19536;HTU21D;9913;51.168;4.124;2022-07-09T14:56:11;27.53;79.17
19536;HTU21D;9913;51.168;4.124;2022-07-09T14:58:40;27.88;78.50
19536;HTU21D;9913;51.168;4.124;2022-07-09T15:01:08;27.75;76.56
19536;HTU21D;9913;51.168;4.124;2022-07-09T15:03:36;27.71;77.98
19536;HTU21D;9913;51.168;4.124;2022-07-09T15:06:05;28.13;77.92
19536;HTU21D;9913;51.168;4.124;2022-07-09T15:08:34;27.83;75.38
19536;HTU21D;9913;51.168;4.124;2022-07-09T15:11:04;27.72;78.56
19536;HTU21D;9913;51.168;4.124;2022-07-09T15:13:33;27.63;80.46
19536;HTU21D;9913;51.168;4.124;2022-07-09T15:16:01;27.30;78.88
19536;HTU21D;9913;51.168;4.124;2022-07-09T15:18:29;25.69;82.32
19536;HTU21D;9913;51.168;4.124;2022-07-09T15:20:58;24.99;89.10
19536;HTU21D;9913;51.168;4.124;2022-07-09T15:23:26;25.83;86.15
19536;HTU21D;9913;51.168;4.124;2022-07-09T15:25:54;27.15;80.60
19536;HTU21D;9913;51.168;4.124;2022-07-09T15:28:24;25.88;85.82
19536;HTU21D;9913;51.168;4.124;2022-07-09T15:30:52;26.81;83.02
19536;HTU21D;9913;51.168;4.124;2022-07-09T15:33:21;26.78;81.76
19536;HTU21D;9913;51.168;4.124;2022-07-09T15:35:49;25.42;87.42
19536;HTU21D;9913;51.168;4.124;2022-07-09T15:38:17;25.42;89.83
19536;HTU21D;9913;51.168;4.124;2022-07-09T15:40:45;26.27;83.02
19536;HTU21D;9913;51.168;4.124;2022-07-09T15:43:14;26.60;83.95